sensor_id;sensor_type;location;lat;lon;timestamp;pressure;altitude;pressure_sealevel;temperature;humidity
5879;BME280;2965;42.640;23.370;2023-09-18T04:00:55;95012.41;;;19.19;nan
5879;BME280;2965;42.640;23.370;2023-09-18T04:03:20;95015.63;;;19.21;nan
5879;BME280;2965;42.640;23.370;2023-09-18T04:05:46;95015.63;;;19.21;nan
5879;BME280;2965;42.640;23.370;2023-09-18T04:08:11;95019.59;;;19.30;nan
5879;BME280;2965;42.640;23.370;2023-09-18T04:10:37;95016.69;;;19.02;nan
5879;BME280;2965;42.640;23.370;2023-09-18T04:13:02;95015.44;;;18.49;nan
5879;BME280;2965;42.640;23.370;2023-09-18T04:15:28;95010.22;;;18.43;nan
5879;BME280;2965;42.640;23.370;2023-09-18T04:17:55;95015.03;;;18.27;nan
5879;BME280;2965;42.640;23.370;2023-09-18T04:20:21;95023.06;;;18.21;nan
5879;BME280;2965;42.640;23.370;2023-09-18T04:22:47;95022.72;;;18.35;nan
5879;BME280;2965;42.640;23.370;2023-09-18T04:25:17;95023.09;;;18.39;nan
5879;BME280;2965;42.640;23.370;2023-09-18T04:27:44;95016.91;;;18.45;nan
5879;BME280;2965;42.640;23.370;2023-09-18T04:30:09;95035.22;;;18.03;nan
5879;BME280;2965;42.640;23.370;2023-09-18T04:32:38;95032.56;;;18.28;nan
5879;BME280;2965;42.640;23.370;2023-09-18T04:35:04;95039.22;;;18.37;nan
5879;BME280;2965;42.640;23.370;2023-09-18T04:37:30;95030.63;;;18.60;nan
5879;BME280;2965;42.640;23.370;2023-09-18T04:39:57;95029.59;;;18.80;nan
5879;BME280;2965;42.640;23.370;2023-09-18T04:42:22;95020.47;;;18.94;nan
5879;BME280;2965;42.640;23.370;2023-09-18T04:44:48;95028.63;;;18.93;nan
5879;BME280;2965;42.640;23.370;2023-09-18T04:47:13;95025.44;;;19.21;nan
5879;BME280;2965;42.640;23.370;2023-09-18T04:49:39;95036.22;;;19.37;nan
5879;BME280;2965;42.640;23.370;2023-09-18T04:52:04;95033.50;;;19.56;nan
5879;BME280;2965;42.640;23.370;2023-09-18T04:54:30;95028.63;;;19.71;nan
5879;BME280;2965;42.640;23.370;2023-09-18T04:56:56;95030.28;;;19.84;nan
5879;BME280;2965;42.640;23.370;2023-09-18T04:59:21;95023.03;;;20.03;nan
5879;BME280;2965;42.640;23.370;2023-09-18T05:01:46;95025.91;;;20.13;nan
5879;BME280;2965;42.640;23.370;2023-09-18T05:04:12;95025.72;;;20.14;nan
5879;BME280;2965;42.640;23.370;2023-09-18T05:06:38;95026.97;;;20.12;nan
5879;BME280;2965;42.640;23.370;2023-09-18T05:09:04;95026.72;;;20.13;nan
5879;BME280;2965;42.640;23.370;2023-09-18T05:11:30;95021.19;;;20.15;nan
5879;BME280;2965;42.640;23.370;2023-09-18T05:13:56;95024.78;;;20.21;nan
5879;BME280;2965;42.640;23.370;2023-09-18T05:16:21;95033.22;;;20.29;nan
5879;BME280;2965;42.640;23.370;2023-09-18T05:18:47;95030.09;;;20.32;nan
5879;BME280;2965;42.640;23.370;2023-09-18T05:21:12;95038.63;;;20.34;nan
5879;BME280;2965;42.640;23.370;2023-09-18T05:23:38;95036.69;;;20.41;nan
5879;BME280;2965;42.640;23.370;2023-09-18T05:26:03;95048.91;;;20.42;nan
5879;BME280;2965;42.640;23.370;2023-09-18T05:28:29;95043.16;;;20.46;nan
5879;BME280;2965;42.640;23.370;2023-09-18T05:30:54;95047.19;;;20.48;nan
5879;BME280;2965;42.640;23.370;2023-09-18T05:33:20;95035.97;;;20.34;nan
5879;BME280;2965;42.640;23.370;2023-09-18T05:35:45;95040.13;;;20.07;nan
5879;BME280;2965;42.640;23.370;2023-09-18T05:38:11;95036.41;;;19.24;nan
5879;BME280;2965;42.640;23.370;2023-09-18T05:40:39;95047.78;;;19.13;nan
5879;BME280;2965;42.640;23.370;2023-09-18T05:43:05;95046.81;;;19.37;nan
5879;BME280;2965;42.640;23.370;2023-09-18T05:45:30;95041.09;;;19.40;nan
5879;BME280;2965;42.640;23.370;2023-09-18T05:47:57;95054.41;;;19.52;nan
5879;BME280;2965;42.640;23.370;2023-09-18T05:50:32;95050.03;;;19.58;nan
5879;BME280;2965;42.640;23.370;2023-09-18T05:52:58;95045.03;;;19.50;nan
5879;BME280;2965;42.640;23.370;2023-09-18T05:55:32;95051.50;;;19.54;nan
5879;BME280;2965;42.640;23.370;2023-09-18T05:57:58;95054.53;;;19.27;nan
5879;BME280;2965;42.640;23.370;2023-09-18T06:00:24;95052.31;;;19.24;nan
5879;BME280;2965;42.640;23.370;2023-09-18T06:02:50;95058.34;;;19.31;nan
5879;BME280;2965;42.640;23.370;2023-09-18T06:05:19;95060.50;;;19.23;nan
5879;BME280;2965;42.640;23.370;2023-09-18T06:07:50;95057.94;;;18.98;nan
5879;BME280;2965;42.640;23.370;2023-09-18T06:10:16;95051.16;;;19.02;nan
5879;BME280;2965;42.640;23.370;2023-09-18T06:12:43;95049.31;;;19.02;nan
5879;BME280;2965;42.640;23.370;2023-09-18T06:15:09;95046.81;;;19.07;nan
5879;BME280;2965;42.640;23.370;2023-09-18T06:17:37;95057.06;;;19.04;nan
5879;BME280;2965;42.640;23.370;2023-09-18T06:20:03;95041.34;;;19.21;nan
5879;BME280;2965;42.640;23.370;2023-09-18T06:22:29;95049.97;;;19.16;nan
5879;BME280;2965;42.640;23.370;2023-09-18T06:24:55;95057.88;;;19.34;nan
5879;BME280;2965;42.640;23.370;2023-09-18T06:27:20;95050.22;;;19.45;nan
5879;BME280;2965;42.640;23.370;2023-09-18T06:29:45;95055.66;;;19.50;nan
5879;BME280;2965;42.640;23.370;2023-09-18T06:32:12;95048.97;;;19.59;nan
5879;BME280;2965;42.640;23.370;2023-09-18T06:34:37;95057.53;;;19.61;nan
5879;BME280;2965;42.640;23.370;2023-09-18T06:37:03;95058.72;;;19.65;nan
5879;BME280;2965;42.640;23.370;2023-09-18T06:39:31;95058.28;;;19.68;nan
5879;BME280;2965;42.640;23.370;2023-09-18T06:41:56;95051.63;;;19.59;nan
5879;BME280;2965;42.640;23.370;2023-09-18T06:44:22;95054.56;;;19.69;nan
5879;BME280;2965;42.640;23.370;2023-09-18T06:46:48;95059.91;;;19.51;nan
5879;BME280;2965;42.640;23.370;2023-09-18T06:49:14;95056.88;;;19.65;nan
5879;BME280;2965;42.640;23.370;2023-09-18T06:51:39;95050.19;;;19.63;nan
5879;BME280;2965;42.640;23.370;2023-09-18T06:54:05;95057.53;;;19.61;nan
5879;BME280;2965;42.640;23.370;2023-09-18T06:56:30;95052.94;;;19.38;nan
5879;BME280;2965;42.640;23.370;2023-09-18T06:58:55;95055.34;;;19.58;nan
5879;BME280;2965;42.640;23.370;2023-09-18T07:01:22;95053.56;;;19.52;nan
5879;BME280;2965;42.640;23.370;2023-09-18T07:03:49;95051.25;;;19.44;nan
5879;BME280;2965;42.640;23.370;2023-09-18T07:06:15;95060.50;;;19.53;nan
5879;BME280;2965;42.640;23.370;2023-09-18T07:08:43;95059.88;;;19.69;nan
5879;BME280;2965;42.640;23.370;2023-09-18T07:11:08;95053.13;;;19.85;nan
5879;BME280;2965;42.640;23.370;2023-09-18T07:13:34;95058.59;;;20.02;nan
5879;BME280;2965;42.640;23.370;2023-09-18T07:15:59;95057.16;;;19.87;nan
5879;BME280;2965;42.640;23.370;2023-09-18T07:18:24;95054.75;;;19.86;nan
5879;BME280;2965;42.640;23.370;2023-09-18T07:20:50;95057.06;;;19.94;nan
5879;BME280;2965;42.640;23.370;2023-09-18T07:23:15;95053.50;;;20.12;nan
5879;BME280;2965;42.640;23.370;2023-09-18T07:25:41;95053.41;;;20.07;nan
5879;BME280;2965;42.640;23.370;2023-09-18T07:28:08;95060.00;;;20.16;nan
5879;BME280;2965;42.640;23.370;2023-09-18T07:30:34;95060.13;;;20.33;nan
5879;BME280;2965;42.640;23.370;2023-09-18T07:33:02;95061.59;;;20.40;nan
5879;BME280;2965;42.640;23.370;2023-09-18T07:35:28;95063.34;;;20.58;nan
5879;BME280;2965;42.640;23.370;2023-09-18T07:37:53;95056.69;;;20.56;nan
5879;BME280;2965;42.640;23.370;2023-09-18T07:40:19;95062.00;;;20.68;nan
5879;BME280;2965;42.640;23.370;2023-09-18T07:42:44;95061.75;;;20.69;nan
5879;BME280;2965;42.640;23.370;2023-09-18T07:45:10;95057.25;;;20.81;nan
5879;BME280;2965;42.640;23.370;2023-09-18T07:47:36;95059.19;;;20.86;nan
5879;BME280;2965;42.640;23.370;2023-09-18T07:50:01;95053.38;;;20.89;nan
5879;BME280;2965;42.640;23.370;2023-09-18T07:52:28;95059.38;;;21.08;nan
5879;BME280;2965;42.640;23.370;2023-09-18T07:54:53;95059.66;;;21.23;nan
5879;BME280;2965;42.640;23.370;2023-09-18T07:57:18;95062.03;;;21.08;nan
5879;BME280;2965;42.640;23.370;2023-09-18T07:59:44;95050.72;;;21.01;nan
5879;BME280;2965;42.640;23.370;2023-09-18T08:02:11;95050.47;;;21.02;nan
5879;BME280;2965;42.640;23.370;2023-09-18T08:04:37;95054.16;;;21.13;nan
5879;BME280;2965;42.640;23.370;2023-09-18T08:07:02;95051.06;;;21.45;nan
5879;BME280;2965;42.640;23.370;2023-09-18T08:09:31;95040.25;;;21.34;nan
5879;BME280;2965;42.640;23.370;2023-09-18T08:11:56;95037.00;;;21.32;nan
5879;BME280;2965;42.640;23.370;2023-09-18T08:14:22;95043.34;;;21.43;nan
5879;BME280;2965;42.640;23.370;2023-09-18T08:16:47;95039.06;;;21.59;nan
5879;BME280;2965;42.640;23.370;2023-09-18T08:19:15;95042.88;;;21.63;nan
5879;BME280;2965;42.640;23.370;2023-09-18T08:21:42;95045.25;;;21.76;nan
5879;BME280;2965;42.640;23.370;2023-09-18T08:24:07;95044.19;;;21.77;nan
5879;BME280;2965;42.640;23.370;2023-09-18T08:26:33;95038.41;;;21.97;nan
5879;BME280;2965;42.640;23.370;2023-09-18T08:28:58;95033.69;;;22.16;nan
5879;BME280;2965;42.640;23.370;2023-09-18T08:31:23;95032.28;;;22.30;nan
5879;BME280;2965;42.640;23.370;2023-09-18T08:33:49;95031.81;;;22.33;nan
5879;BME280;2965;42.640;23.370;2023-09-18T08:36:16;95032.88;;;22.32;nan
5879;BME280;2965;42.640;23.370;2023-09-18T08:38:41;95027.75;;;22.48;nan
5879;BME280;2965;42.640;23.370;2023-09-18T08:41:10;95030.47;;;22.53;nan
5879;BME280;2965;42.640;23.370;2023-09-18T08:43:37;95021.84;;;22.62;nan
5879;BME280;2965;42.640;23.370;2023-09-18T08:46:04;95016.75;;;22.83;nan
5879;BME280;2965;42.640;23.370;2023-09-18T08:48:30;95016.03;;;22.87;nan
5879;BME280;2965;42.640;23.370;2023-09-18T08:51:04;95012.97;;;22.79;nan
5879;BME280;2965;42.640;23.370;2023-09-18T08:53:34;95010.88;;;22.98;nan
5879;BME280;2965;42.640;23.370;2023-09-18T08:56:00;95011.47;;;23.05;nan
5879;BME280;2965;42.640;23.370;2023-09-18T08:58:33;95013.81;;;23.23;nan
5879;BME280;2965;42.640;23.370;2023-09-18T09:01:03;95003.31;;;23.38;nan
5879;BME280;2965;42.640;23.370;2023-09-18T09:03:31;95010.69;;;23.31;nan
5879;BME280;2965;42.640;23.370;2023-09-18T09:23:09;95005.97;;;24.30;nan
5879;BME280;2965;42.640;23.370;2023-09-18T09:25:36;94996.28;;;24.56;nan
5879;BME280;2965;42.640;23.370;2023-09-18T09:28:05;94997.38;;;24.65;nan
5879;BME280;2965;42.640;23.370;2023-09-18T12:40:43;94835.53;;;29.83;nan
5879;BME280;2965;42.640;23.370;2023-09-18T12:43:12;94838.09;;;30.21;nan
5879;BME280;2965;42.640;23.370;2023-09-18T12:45:41;94840.75;;;29.94;nan
5879;BME280;2965;42.640;23.370;2023-09-18T12:48:06;94833.84;;;29.55;nan
5879;BME280;2965;42.640;23.370;2023-09-18T12:50:32;94846.31;;;29.83;nan
5879;BME280;2965;42.640;23.370;2023-09-18T12:53:13;94835.72;;;29.73;nan
5879;BME280;2965;42.640;23.370;2023-09-18T12:55:39;94830.97;;;29.98;nan
5879;BME280;2965;42.640;23.370;2023-09-18T12:58:10;94831.97;;;30.02;nan
5879;BME280;2965;42.640;23.370;2023-09-18T13:00:36;94817.19;;;30.13;nan
5879;BME280;2965;42.640;23.370;2023-09-18T13:03:02;94813.69;;;30.12;nan
5879;BME280;2965;42.640;23.370;2023-09-18T13:05:30;94827.06;;;30.04;nan
5879;BME280;2965;42.640;23.370;2023-09-18T13:08:02;94829.78;;;30.04;nan
5879;BME280;2965;42.640;23.370;2023-09-18T13:10:27;94826.00;;;30.32;nan
5879;BME280;2965;42.640;23.370;2023-09-18T13:12:53;94825.59;;;30.80;nan
5879;BME280;2965;42.640;23.370;2023-09-18T13:15:29;94811.72;;;30.46;nan
5879;BME280;2965;42.640;23.370;2023-09-18T13:17:56;94823.03;;;30.48;nan
5879;BME280;2965;42.640;23.370;2023-09-18T13:20:27;94818.31;;;30.53;nan
5879;BME280;2965;42.640;23.370;2023-09-18T13:22:55;94810.44;;;30.43;nan
5879;BME280;2965;42.640;23.370;2023-09-18T13:25:32;94816.81;;;30.61;nan
5879;BME280;2965;42.640;23.370;2023-09-18T13:28:00;94805.22;;;30.19;nan
5879;BME280;2965;42.640;23.370;2023-09-18T13:30:25;94821.22;;;30.29;nan
5879;BME280;2965;42.640;23.370;2023-09-18T13:33:01;94814.94;;;30.20;nan
5879;BME280;2965;42.640;23.370;2023-09-18T13:35:27;94812.47;;;29.91;nan
5879;BME280;2965;42.640;23.370;2023-09-18T13:37:53;94807.63;;;30.07;nan
5879;BME280;2965;42.640;23.370;2023-09-18T13:40:18;94806.81;;;30.61;nan
5879;BME280;2965;42.640;23.370;2023-09-18T13:42:43;94807.97;;;30.97;nan
5879;BME280;2965;42.640;23.370;2023-09-18T13:45:09;94810.47;;;31.29;nan
5879;BME280;2965;42.640;23.370;2023-09-18T13:47:36;94818.31;;;31.17;nan
5879;BME280;2965;42.640;23.370;2023-09-18T13:50:03;94817.16;;;31.54;nan
5879;BME280;2965;42.640;23.370;2023-09-18T13:52:30;94808.16;;;31.36;nan
5879;BME280;2965;42.640;23.370;2023-09-18T13:54:56;94805.47;;;31.23;nan
5879;BME280;2965;42.640;23.370;2023-09-18T13:57:22;94805.38;;;30.92;nan
5879;BME280;2965;42.640;23.370;2023-09-18T13:59:49;94801.00;;;30.13;nan
5879;BME280;2965;42.640;23.370;2023-09-18T14:02:15;94802.00;;;29.89;nan
5879;BME280;2965;42.640;23.370;2023-09-18T14:04:41;94797.00;;;30.10;nan
5879;BME280;2965;42.640;23.370;2023-09-18T14:07:08;94808.19;;;29.76;nan
5879;BME280;2965;42.640;23.370;2023-09-18T14:09:34;94796.19;;;29.82;nan
5879;BME280;2965;42.640;23.370;2023-09-18T14:12:01;94804.59;;;29.95;nan
5879;BME280;2965;42.640;23.370;2023-09-18T14:14:28;94791.84;;;30.14;nan
5879;BME280;2965;42.640;23.370;2023-09-18T14:16:53;94803.03;;;30.49;nan
5879;BME280;2965;42.640;23.370;2023-09-18T14:19:19;94798.97;;;30.37;nan
5879;BME280;2965;42.640;23.370;2023-09-18T14:21:45;94801.00;;;29.85;nan
5879;BME280;2965;42.640;23.370;2023-09-18T14:24:10;94802.34;;;29.69;nan
5879;BME280;2965;42.640;23.370;2023-09-18T14:26:36;94801.34;;;29.65;nan
5879;BME280;2965;42.640;23.370;2023-09-18T14:29:07;94794.06;;;29.33;nan
5879;BME280;2965;42.640;23.370;2023-09-18T14:31:33;94798.75;;;29.60;nan
5879;BME280;2965;42.640;23.370;2023-09-18T14:33:58;94792.72;;;29.49;nan
5879;BME280;2965;42.640;23.370;2023-09-18T14:36:25;94787.31;;;29.49;nan
5879;BME280;2965;42.640;23.370;2023-09-18T14:38:50;94789.06;;;29.07;nan
5879;BME280;2965;42.640;23.370;2023-09-18T20:52:24;94918.44;;;19.15;nan
5879;BME280;2965;42.640;23.370;2023-09-18T20:54:50;94907.25;;;19.13;nan
5879;BME280;2965;42.640;23.370;2023-09-18T20:57:16;94905.91;;;19.22;nan
5879;BME280;2965;42.640;23.370;2023-09-18T20:59:41;94909.75;;;19.08;nan
